Time;durP1;ratioP1;P1;durP2;ratioP2;P2;SDS_P1;SDS_P2;PMS_P1;PMS_P2;Temp;Humidity;BMP_temperature;BMP_pressure;BME280_temperature;BME280_humidity;BME280_pressure;Samples;Min_cycle;Max_cycle;Signal;HPM_P1;HPM_P2
2023/09/26 00:05:11;;;;;;;3.60;2.90;;;;;;;13.75;76.21;99732.78;7335952;39;20370;31
2023/09/26 00:10:46;;;;;;;3.57;2.67;;;;;;;13.78;76.05;99727.00;7257361;40;20245;31
2023/09/26 00:16:07;;;;;;;6.30;2.60;;;;;;;13.88;74.47;99738.50;7273651;39;20255;31
2023/09/26 00:21:29;;;;;;;3.95;2.65;;;;;;;13.92;73.68;99746.09;7237736;40;20359;31
2023/09/26 00:27:04;;;;;;;4.23;2.47;;;;;;;13.91;73.30;99740.84;7257697;39;20361;31
2023/09/26 00:32:25;;;;;;;3.73;2.50;;;;;;;13.99;72.34;99755.25;7285492;39;20244;31
2023/09/26 00:38:00;;;;;;;3.15;2.55;;;;;;;13.88;72.69;99754.75;7309816;39;20260;31
2023/09/26 00:43:39;;;;;;;3.10;2.70;;;;;;;13.41;73.25;99752.84;7280171;40;20374;31
2023/09/26 00:49:14;;;;;;;4.45;2.40;;;;;;;13.26;73.61;99759.94;7249345;40;20338;31
2023/09/26 00:54:47;;;;;;;4.57;2.47;;;;;;;13.09;73.97;99748.25;7234268;40;20238;31
2023/09/26 01:00:25;;;;;;;3.77;2.50;;;;;;;13.06;73.85;99753.16;7239332;40;20259;31
2023/09/26 01:05:42;;;;;;;4.70;2.83;;;;;;;13.12;72.86;99748.97;7268697;40;20245;31
2023/09/26 01:11:03;;;;;;;7.03;2.93;;;;;;;13.00;73.74;99753.81;7304048;39;20236;31
2023/09/26 01:16:39;;;;;;;4.17;2.90;;;;;;;12.85;74.42;99739.28;7344839;39;20240;31
2023/09/26 01:22:14;;;;;;;4.43;2.60;;;;;;;12.88;73.89;99744.34;7287806;39;20233;31
2023/09/26 01:27:50;;;;;;;5.30;2.60;;;;;;;12.96;73.05;99738.94;7324452;39;20360;31
2023/09/26 01:33:25;;;;;;;4.00;2.80;;;;;;;12.73;73.12;99735.19;7280669;40;20257;31
2023/09/26 01:38:42;;;;;;;6.35;3.05;;;;;;;12.64;73.60;99731.63;7175331;40;20354;31
2023/09/26 01:44:19;;;;;;;5.50;2.97;;;;;;;12.57;74.73;99726.06;7234027;40;20249;31
2023/09/26 01:54:42;;;;;;;5.35;3.70;;;;;;;12.35;74.90;99736.63;7262707;40;20264;31
2023/09/26 02:06:00;;;;;;;4.90;3.43;;;;;;;12.49;75.94;99730.59;7260804;39;20245;31
2023/09/26 02:11:36;;;;;;;4.73;3.80;;;;;;;12.34;76.30;99724.13;7339629;39;20337;31
2023/09/26 02:17:06;;;;;;;4.70;3.40;;;;;;;12.29;75.49;99724.63;7259384;40;20312;31
2023/09/26 02:22:42;;;;;;;3.40;3.10;;;;;;;12.23;76.29;99725.31;7242032;40;20244;31
2023/09/26 02:28:15;;;;;;;6.00;3.30;;;;;;;12.12;76.24;99725.59;7240568;40;20335;31
2023/09/26 02:33:36;;;;;;;2.90;2.70;;;;;;;12.07;76.07;99727.91;7232957;40;20253;31
2023/09/26 02:39:07;;;;;;;;;;;;;;;;;;;;;
2023/09/26 02:44:33;;;;;;;4.83;3.40;;;;;;;11.97;76.96;99727.22;7233006;40;20240;31
2023/09/26 02:50:08;;;;;;;7.35;4.30;;;;;;;11.89;77.06;99719.09;7258476;40;20366;31
2023/09/26 02:55:27;;;;;;;5.87;4.07;;;;;;;12.08;77.07;99714.25;7241366;40;20329;31
2023/09/26 03:06:07;;;;;;;6.67;3.47;;;;;;;12.26;76.07;99702.50;7274155;39;20257;31
2023/09/26 03:11:45;;;;;;;5.30;3.30;;;;;;;12.18;75.79;99719.53;7279185;39;20383;31
2023/09/26 03:17:06;;;;;;;4.30;3.20;;;;;;;11.82;77.10;99702.69;7258243;40;20253;31
2023/09/26 03:22:42;;;;;;;4.45;3.55;;;;;;;11.81;76.69;99694.72;7237840;40;20256;31
2023/09/26 03:28:17;;;;;;;3.70;3.20;;;;;;;12.02;75.61;99684.38;7251922;39;20236;31
2023/09/26 03:33:53;;;;;;;4.55;3.20;;;;;;;12.24;75.22;99701.81;7216907;40;20259;31
2023/09/26 03:39:30;;;;;;;3.70;3.20;;;;;;;12.22;74.99;99703.84;7013297;40;21196;31
2023/09/26 03:45:06;;;;;;;8.17;3.80;;;;;;;12.06;75.96;99705.50;7248936;40;20375;31
2023/09/26 03:50:42;;;;;;;5.80;4.15;;;;;;;11.90;75.84;99694.59;7200429;40;20253;31
2023/09/26 03:56:20;;;;;;;4.57;3.43;;;;;;;11.94;75.73;99693.25;7197797;40;20349;31
2023/09/26 04:01:42;;;;;;;3.80;3.10;;;;;;;12.11;74.90;99695.00;7159709;40;20576;31
2023/09/26 04:07:16;;;;;;;6.00;3.60;;;;;;;12.11;74.92;99705.00;7208923;40;20238;31
2023/09/26 04:12:53;;;;;;;4.83;3.40;;;;;;;11.82;75.19;99693.72;7212588;40;20269;31
2023/09/26 04:18:14;;;;;;;7.60;4.07;;;;;;;11.72;75.54;99694.69;7279408;40;20252;31
2023/09/26 04:23:46;;;;;;;4.50;3.30;;;;;;;11.73;75.72;99695.53;7238810;40;20246;31
2023/09/26 04:29:23;;;;;;;5.40;3.30;;;;;;;11.83;75.59;99692.72;7287883;39;20274;31
2023/09/26 04:34:58;;;;;;;4.13;3.50;;;;;;;11.70;75.75;99695.84;7251145;40;20323;31
2023/09/26 04:40:34;;;;;;;7.10;3.70;;;;;;;11.60;76.55;99692.41;7216968;40;20242;31
2023/09/26 04:46:12;;;;;;;4.90;3.90;;;;;;;11.41;77.31;99695.34;7195231;40;20472;31
2023/09/26 04:51:48;;;;;;;7.15;4.30;;;;;;;11.60;76.87;99695.97;7234310;40;20370;31
2023/09/26 04:57:08;;;;;;;8.97;4.27;;;;;;;11.53;76.99;99692.22;7251234;40;20246;31
2023/09/26 05:02:44;;;;;;;6.95;4.90;;;;;;;11.48;77.96;99699.09;7313463;39;20325;31
2023/09/26 05:13:27;;;;;;;6.23;4.50;;;;;;;11.60;76.90;99708.59;7271722;40;20464;31
2023/09/26 05:19:04;;;;;;;6.90;4.70;;;;;;;11.39;77.39;99695.50;7299595;39;20274;31
2023/09/26 05:24:39;;;;;;;7.93;4.57;;;;;;;11.43;77.49;99696.03;7271251;39;20662;31
2023/09/26 05:29:59;;;;;;;7.45;5.15;;;;;;;11.40;77.28;99701.75;7256453;40;20301;31
2023/09/26 05:35:35;;;;;;;6.40;5.13;;;;;;;11.28;78.00;99698.47;7269808;40;20280;31
2023/09/26 05:41:11;;;;;;;6.73;4.60;;;;;;;11.40;77.39;99710.69;7257606;39;20335;31
2023/09/26 05:46:30;;;;;;;6.80;4.60;;;;;;;11.45;76.79;99713.75;7233786;40;20294;31
2023/09/26 05:52:06;;;;;;;6.90;4.80;;;;;;;11.51;76.99;99710.41;7233161;40;20256;31
2023/09/26 05:57:43;;;;;;;5.14;4.58;;;;;;;11.49;76.95;99709.75;7198042;40;21003;31
2023/09/26 06:03:03;;;;;;;6.80;4.70;;;;;;;11.39;77.26;99727.91;7183129;40;20716;31
2023/09/26 06:08:40;;;;;;;5.60;4.50;;;;;;;11.32;77.69;99738.47;7214391;40;20256;31
2023/09/26 06:14:15;;;;;;;5.75;5.25;;;;;;;11.50;77.84;99735.72;7256748;40;20238;31
2023/09/26 06:19:51;;;;;;;6.53;5.90;;;;;;;11.73;76.89;99738.75;7218255;40;20343;31
2023/09/26 06:25:27;;;;;;;8.40;5.10;;;;;;;11.79;77.03;99734.56;7241957;40;20750;31
2023/09/26 06:31:02;;;;;;;7.73;5.13;;;;;;;11.89;76.90;99736.13;7210987;40;20254;31
2023/09/26 06:36:37;;;;;;;8.90;4.93;;;;;;;12.03;77.19;99740.06;7224521;40;20245;31
2023/09/26 06:42:13;;;;;;;7.83;5.50;;;;;;;12.10;77.57;99733.87;7250032;40;20254;31
2023/09/26 06:47:48;;;;;;;9.33;6.57;;;;;;;12.27;78.79;99729.38;7245735;39;20252;31
2023/09/26 06:53:08;;;;;;;8.85;6.18;;;;;;;12.48;78.70;99724.34;7254908;39;20331;31
2023/09/26 06:58:44;;;;;;;8.00;7.10;;;;;;;12.63;81.11;99729.97;7234415;40;20260;31
2023/09/26 07:04:19;;;;;;;7.73;6.13;;;;;;;12.84;79.24;99732.16;7245478;39;20375;31
2023/09/26 07:09:40;;;;;;;8.43;6.80;;;;;;;13.17;78.62;99733.87;7210012;40;20256;31
2023/09/26 07:15:16;;;;;;;10.97;8.73;;;;;;;13.36;79.27;99733.53;7237377;40;20323;31
2023/09/26 07:20:53;;;;;;;8.03;7.23;;;;;;;13.52;79.24;99736.22;7264613;40;20237;31
2023/09/26 07:26:27;;;;;;;10.10;8.30;;;;;;;13.70;79.90;99733.31;7298927;39;20252;31
2023/09/26 07:32:05;;;;;;;12.67;8.57;;;;;;;13.82;80.39;99744.63;7259471;40;20261;31
2023/09/26 07:37:37;;;;;;;9.90;8.20;;;;;;;13.97;79.57;99740.16;7299642;39;21657;31
2023/09/26 07:43:13;;;;;;;8.94;8.04;;;;;;;14.15;79.09;99737.22;7336672;39;20465;31
2023/09/26 07:48:48;;;;;;;11.85;8.15;;;;;;;14.33;79.20;99737.81;7254259;40;20293;31
2023/09/26 07:59:28;;;;;;;12.50;8.25;;;;;;;14.54;79.31;99737.19;7275834;39;20767;31
2023/09/26 08:10:09;;;;;;;11.90;8.77;;;;;;;14.86;79.59;99737.00;7291639;39;20274;31
2023/09/26 08:15:43;;;;;;;13.07;9.17;;;;;;;15.04;78.80;99737.53;7279816;39;21088;31
2023/09/26 08:21:18;;;;;;;9.95;8.90;;;;;;;15.19;78.41;99730.28;7261870;39;20307;31
2023/09/26 08:26:55;;;;;;;10.17;8.67;;;;;;;15.37;78.44;99734.53;7261371;40;20368;31
2023/09/26 08:32:16;;;;;;;11.90;9.00;;;;;;;15.56;77.28;99729.44;7205795;40;20257;31
2023/09/26 08:37:50;;;;;;;12.70;8.70;;;;;;;15.74;77.02;99726.37;7231103;40;20254;31
2023/09/26 08:43:26;;;;;;;13.10;8.60;;;;;;;15.91;77.37;99718.87;7235922;40;20237;31
2023/09/26 08:49:03;;;;;;;9.43;8.07;;;;;;;16.03;77.04;99718.22;7238171;40;20261;31
2023/09/26 08:54:36;;;;;;;9.30;7.20;;;;;;;16.20;76.35;99719.69;7232826;40;20255;31
2023/09/26 09:00:14;;;;;;;9.17;8.23;;;;;;;16.37;75.52;99714.88;7268804;40;20267;31
2023/09/26 09:05:49;;;;;;;9.23;7.63;;;;;;;16.52;76.15;99712.97;7225923;40;20329;31
2023/09/26 09:11:24;;;;;;;9.23;7.47;;;;;;;16.65;75.38;99715.88;7306885;39;20257;31
2023/09/26 09:17:10;;;;;;;8.10;7.30;;;;;;;16.77;74.96;99708.03;7260039;40;20256;31
2023/09/26 09:22:32;;;;;;;8.00;6.90;;;;;;;16.98;74.62;99705.28;7227454;40;20245;31
2023/09/26 09:27:52;;;;;;;7.60;6.50;;;;;;;17.16;74.06;99695.84;7220091;40;20317;31
2023/09/26 09:33:25;;;;;;;8.47;6.60;;;;;;;17.24;72.91;99701.97;7238543;40;20244;31
2023/09/26 09:39:01;;;;;;;8.00;6.90;;;;;;;17.42;72.97;99688.69;7238334;40;20243;31
2023/09/26 09:44:25;;;;;;;7.10;5.50;;;;;;;17.63;72.34;99687.84;7217338;40;20242;31
2023/09/26 09:50:01;;;;;;;11.10;7.10;;;;;;;17.77;71.97;99684.12;7196388;40;20370;31
2023/09/26 10:00:41;;;;;;;8.25;6.70;;;;;;;18.01;71.10;99683.63;7297964;39;20793;31
2023/09/26 10:11:19;;;;;;;7.80;6.16;;;;;;;18.38;70.46;99679.59;7273038;39;20364;31
2023/09/26 10:16:50;;;;;;;7.63;6.40;;;;;;;18.57;69.45;99688.91;7035578;40;20379;31
2023/09/26 10:22:27;;;;;;;9.17;6.27;;;;;;;18.73;69.13;99682.25;7279619;39;20260;31
2023/09/26 10:28:07;;;;;;;8.40;5.50;;;;;;;18.92;69.24;99665.00;7298818;40;20262;31
2023/09/26 10:33:43;;;;;;;6.86;6.14;;;;;;;19.10;69.20;99659.78;7276479;39;20240;31
2023/09/26 10:39:18;;;;;;;8.60;6.00;;;;;;;19.39;67.46;99649.47;7318967;39;20265;31
2023/09/26 10:44:52;;;;;;;7.83;5.33;;;;;;;19.57;68.09;99646.94;7225475;40;20253;31
2023/09/26 10:50:27;;;;;;;6.77;5.40;;;;;;;19.79;66.53;99643.72;7223897;40;20261;31
2023/09/26 10:56:02;;;;;;;6.87;4.93;;;;;;;19.97;66.04;99637.53;7238085;40;20233;31
2023/09/26 11:07:12;;;;;;;8.20;4.67;;;;;;;20.41;64.96;99625.78;7237437;40;20249;31
2023/09/26 11:12:50;;;;;;;7.40;4.80;;;;;;;20.61;64.31;99623.78;7201312;40;20301;31
2023/09/26 11:18:28;;;;;;;4.80;4.30;;;;;;;20.81;62.78;99629.09;7237859;39;20256;31
2023/09/26 11:29:08;;;;;;;5.43;4.20;;;;;;;21.36;62.69;99619.19;7307042;39;20360;31
2023/09/26 11:34:45;;;;;;;7.23;4.90;;;;;;;21.61;61.43;99612.81;7269227;40;20241;31
2023/09/26 11:40:18;;;;;;;6.40;4.38;;;;;;;21.77;61.05;99607.53;7247252;40;20268;31
2023/09/26 11:45:53;;;;;;;7.43;4.60;;;;;;;22.03;60.17;99607.25;7238846;40;20296;31
2023/09/26 11:51:29;;;;;;;5.10;3.87;;;;;;;22.24;59.47;99602.34;7203900;40;20245;31
2023/09/26 11:57:05;;;;;;;9.15;4.70;;;;;;;22.24;58.67;99611.44;7172099;40;20251;31
2023/09/26 12:02:42;;;;;;;5.20;3.94;;;;;;;22.31;58.03;99606.69;7182064;40;20242;31
2023/09/26 12:08:18;;;;;;;4.65;3.50;;;;;;;22.51;56.27;99608.31;7200005;40;20344;31
2023/09/26 12:13:53;;;;;;;4.68;3.75;;;;;;;22.67;56.22;99593.91;7248434;40;20242;31
2023/09/26 12:19:32;;;;;;;5.45;3.80;;;;;;;22.85;56.46;99599.34;7248277;40;20280;31
2023/09/26 12:25:08;;;;;;;4.60;3.60;;;;;;;22.85;56.08;99589.19;7241369;40;20308;31
2023/09/26 12:30:44;;;;;;;5.83;3.70;;;;;;;23.03;54.88;99587.41;7246298;40;20246;31
2023/09/26 12:36:17;;;;;;;6.47;3.47;;;;;;;23.12;54.26;99575.00;7215578;40;20347;31
2023/09/26 12:41:54;;;;;;;5.15;3.70;;;;;;;23.16;53.99;99565.19;7228268;40;20499;31
2023/09/26 12:47:29;;;;;;;5.90;3.45;;;;;;;23.20;55.12;99566.37;7221528;40;20243;31
2023/09/26 12:52:49;;;;;;;3.87;3.10;;;;;;;23.45;53.77;99574.41;7238497;40;20335;31
2023/09/26 12:58:27;;;;;;;3.97;2.92;;;;;;;23.53;53.53;99568.53;7241217;40;20342;31
2023/09/26 13:04:02;;;;;;;4.24;3.44;;;;;;;23.53;53.57;99565.78;7261094;40;20485;31
2023/09/26 13:09:22;;;;;;;4.90;2.90;;;;;;;23.61;54.16;99565.41;7254581;40;20366;31
2023/09/26 13:20:00;;;;;;;3.70;2.80;;;;;;;23.77;53.29;99553.66;7279149;39;21224;31
2023/09/26 13:25:20;;;;;;;4.00;2.90;;;;;;;23.80;54.22;99555.91;7261010;40;20306;31
2023/09/26 13:30:55;;;;;;;5.47;2.77;;;;;;;23.74;53.60;99557.72;7269638;39;20380;31
2023/09/26 13:36:31;;;;;;;5.06;2.84;;;;;;;23.70;53.08;99550.19;7238006;40;20371;31
2023/09/26 13:42:08;;;;;;;4.40;2.92;;;;;;;23.57;53.74;99544.94;7209115;40;20257;31
2023/09/26 13:47:43;;;;;;;4.50;2.60;;;;;;;23.68;54.07;99541.34;7230117;40;20241;31
2023/09/26 13:58:35;;;;;;;4.00;2.60;;;;;;;23.69;52.36;99546.63;7251745;40;20245;31
2023/09/26 14:03:57;;;;;;;3.30;2.50;;;;;;;23.77;52.38;99543.47;7237999;40;20245;31
2023/09/26 14:09:31;;;;;;;6.20;3.10;;;;;;;23.75;53.66;99539.28;7305085;39;20233;31
2023/09/26 14:15:06;;;;;;;4.70;2.75;;;;;;;23.62;51.93;99534.03;7273124;40;20235;31
2023/09/26 14:20:47;;;;;;;3.62;2.58;;;;;;;23.65;52.63;99537.16;7276209;39;20272;31
2023/09/26 14:31:26;;;;;;;3.45;2.45;;;;;;;23.65;52.66;99537.16;7244487;40;20843;31
2023/09/26 14:37:02;;;;;;;4.12;2.28;;;;;;;23.59;51.85;99538.13;7242404;40;20605;31
2023/09/26 14:42:23;;;;;;;3.57;2.20;;;;;;;23.59;51.93;99540.06;7240129;39;20318;31
2023/09/26 14:48:00;;;;;;;3.30;2.30;;;;;;;23.51;52.33;99538.53;7276739;39;20408;31
2023/09/26 14:53:20;;;;;;;3.05;2.25;;;;;;;23.53;53.46;99532.75;7169036;40;20257;31
2023/09/26 14:58:55;;;;;;;3.27;2.43;;;;;;;23.51;53.92;99529.41;7181297;40;20242;31
2023/09/26 15:04:31;;;;;;;4.05;2.30;;;;;;;23.36;54.38;99524.38;7147421;40;20369;31
2023/09/26 15:09:50;;;;;;;5.34;2.22;;;;;;;23.14;54.02;99526.91;7193176;40;20245;31
2023/09/26 15:15:28;;;;;;;3.55;2.47;;;;;;;23.05;54.02;99538.50;7253756;40;20257;31
2023/09/26 15:21:00;;;;;;;5.63;2.50;;;;;;;22.95;53.85;99525.34;7236661;40;22103;31
2023/09/26 15:26:36;;;;;;;4.20;2.70;;;;;;;22.90;54.56;99515.06;7235995;40;20260;31
2023/09/26 15:32:11;;;;;;;3.37;2.33;;;;;;;22.89;53.82;99523.56;7218008;40;20272;31
2023/09/26 15:37:47;;;;;;;3.60;2.10;;;;;;;22.85;54.45;99519.63;7213619;40;20246;31
2023/09/26 15:43:22;;;;;;;2.30;2.10;;;;;;;22.83;54.97;99516.25;7247429;40;20423;31
2023/09/26 15:48:43;;;;;;;4.85;2.50;;;;;;;22.74;55.32;99520.44;7232084;40;20420;31
2023/09/26 15:59:20;;;;;;;3.20;2.30;;;;;;;22.60;55.19;99521.72;7289199;39;21544;31
2023/09/26 16:04:51;;;;;;;;;;;;;;;;;;;;;
2023/09/26 16:10:16;;;;;;;4.72;2.20;;;;;;;22.44;55.93;99525.97;7277414;39;20272;31
2023/09/26 16:20:59;;;;;;;3.17;2.00;;;;;;;22.18;56.32;99521.72;7305488;39;21121;31
2023/09/26 16:31:36;;;;;;;4.05;2.75;;;;;;;22.12;56.53;99525.38;7297933;39;20285;31
2023/09/26 16:42:17;;;;;;;4.85;2.30;;;;;;;22.07;59.03;99539.00;7334263;39;20277;31
2023/09/26 16:47:37;;;;;;;5.93;2.30;;;;;;;21.93;60.42;99543.84;7132560;39;20280;31
2023/09/26 16:52:59;;;;;;;4.57;2.45;;;;;;;21.79;61.96;99549.69;7319539;39;20368;31
2023/09/26 16:58:35;;;;;;;2.80;2.03;;;;;;;21.51;62.96;99545.59;7318527;39;20253;31
2023/09/26 17:04:11;;;;;;;3.40;2.30;;;;;;;21.14;64.86;99546.63;7245877;40;20249;31
2023/09/26 17:09:45;;;;;;;3.85;2.25;;;;;;;20.91;64.65;99551.87;7220064;40;20261;31
2023/09/26 17:15:25;;;;;;;3.20;2.50;;;;;;;20.76;65.29;99545.88;7191438;40;20284;31
2023/09/26 17:21:10;;;;;;;3.65;2.28;;;;;;;20.53;65.94;99550.09;7233393;40;21106;31
2023/09/26 17:26:31;;;;;;;2.80;2.45;;;;;;;20.40;65.36;99558.41;7279361;40;20260;31
2023/09/26 17:32:16;;;;;;;3.10;2.72;;;;;;;20.15;65.58;99557.47;7302005;39;20259;31
2023/09/26 17:42:42;;;;;;;4.00;2.90;;;;;;;19.77;66.78;99571.97;7312525;39;20991;31
2023/09/26 17:48:23;;;;;;;3.85;2.65;;;;;;;19.60;67.33;99573.50;7358831;39;20483;31
2023/09/26 17:54:08;;;;;;;;;;;;;;;;;;;;;
2023/09/26 17:59:19;;;;;;;3.05;2.40;;;;;;;19.38;66.55;99583.00;7280004;39;20245;31
2023/09/26 18:04:54;;;;;;;5.97;2.70;;;;;;;19.20;67.59;99574.63;7278570;40;21206;31
2023/09/26 18:10:23;;;;;;;4.28;2.78;;;;;;;19.08;67.62;99581.81;7257288;40;21134;31
2023/09/26 18:15:40;;;;;;;3.75;2.20;;;;;;;19.02;66.46;99578.00;7269943;40;20300;31
2023/09/26 18:21:18;;;;;;;3.60;2.50;;;;;;;18.73;67.46;99592.97;7252796;40;20241;31
2023/09/26 18:26:42;;;;;;;3.80;2.60;;;;;;;18.61;67.67;99594.59;7231402;40;20363;31
2023/09/26 18:37:38;;;;;;;3.97;2.53;;;;;;;18.29;68.45;99593.50;7302133;39;21259;31
2023/09/26 18:43:27;;;;;;;5.70;2.80;;;;;;;18.19;68.58;99603.97;7243849;40;20273;31
2023/09/26 18:48:35;;;;;;;3.33;2.87;;;;;;;18.15;68.65;99608.12;7260531;39;20245;31
2023/09/26 18:54:12;;;;;;;3.90;2.50;;;;;;;18.00;69.29;99608.28;7301364;39;20387;31
2023/09/26 18:59:47;;;;;;;3.00;2.70;;;;;;;17.94;69.73;99611.00;7339001;39;20347;31
2023/09/26 19:05:24;;;;;;;3.78;2.28;;;;;;;17.85;69.90;99609.50;7323173;39;20240;31
2023/09/26 19:11:02;;;;;;;3.10;2.60;;;;;;;17.65;70.72;99614.84;7284803;39;20259;31
2023/09/26 19:16:26;;;;;;;3.50;3.00;;;;;;;17.50;70.65;99622.28;7241386;40;20269;31
2023/09/26 19:22:01;;;;;;;4.35;2.60;;;;;;;17.37;71.45;99612.16;7248263;40;20260;31
2023/09/26 19:27:37;;;;;;;2.90;2.60;;;;;;;17.25;71.17;99615.59;7233232;40;20368;31
2023/09/26 19:33:01;;;;;;;3.40;2.60;;;;;;;17.29;71.25;99616.94;7206681;40;20261;31
2023/09/26 19:38:36;;;;;;;3.40;3.10;;;;;;;17.23;71.37;99621.28;7199485;40;20321;31
2023/09/26 19:44:13;;;;;;;3.55;2.90;;;;;;;17.24;72.04;99614.78;7212046;40;21088;31
2023/09/26 19:49:38;;;;;;;3.60;2.60;;;;;;;17.25;71.22;99610.16;7257756;40;20252;31
2023/09/26 19:55:10;;;;;;;3.50;2.73;;;;;;;17.10;71.43;99605.69;7297116;39;20241;31
2023/09/26 20:00:48;;;;;;;3.20;2.80;;;;;;;16.85;71.90;99609.03;7259340;40;20260;31
2023/09/26 20:06:31;;;;;;;3.23;2.57;;;;;;;16.65;73.01;99606.13;7235561;40;20340;31
2023/09/26 20:12:08;;;;;;;4.03;2.83;;;;;;;16.61;73.68;99613.84;7257210;40;20366;31
2023/09/26 20:17:45;;;;;;;2.90;2.50;;;;;;;16.58;73.16;99597.94;7221407;40;20238;31
2023/09/26 20:23:21;;;;;;;4.70;2.70;;;;;;;16.62;73.01;99603.81;7230354;40;20240;31
2023/09/26 20:28:41;;;;;;;5.20;2.50;;;;;;;16.53;72.99;99615.84;7292858;39;20397;31
2023/09/26 20:34:19;;;;;;;3.10;2.30;;;;;;;16.53;72.91;99608.53;7280881;40;20258;31
2023/09/26 20:39:55;;;;;;;3.00;2.50;;;;;;;16.49;73.33;99611.81;7278322;40;20341;31
2023/09/26 20:45:30;;;;;;;3.80;2.50;;;;;;;16.37;72.99;99621.50;7164248;40;20570;31
2023/09/26 20:51:08;;;;;;;3.33;2.47;;;;;;;16.23;73.75;99626.81;7273174;39;20367;31
2023/09/26 20:56:45;;;;;;;3.70;2.70;;;;;;;16.17;73.66;99621.31;7278929;39;20254;31
2023/09/26 21:02:20;;;;;;;5.30;2.40;;;;;;;16.08;73.65;99617.03;7218646;40;20254;31
2023/09/26 21:08:07;;;;;;;;;;;;;;;;;;;;;
2023/09/26 21:13:33;;;;;;;2.87;2.40;;;;;;;15.88;74.68;99621.38;7193133;40;20381;31
2023/09/26 21:18:54;;;;;;;3.20;2.25;;;;;;;15.82;73.27;99620.25;7206019;40;20261;31
2023/09/26 21:24:29;;;;;;;3.07;2.13;;;;;;;15.71;73.67;99610.72;7212150;40;20354;31
2023/09/26 21:35:09;;;;;;;3.40;3.00;;;;;;;15.59;74.54;99611.38;7311944;39;20259;31
2023/09/26 21:40:46;;;;;;;3.87;2.30;;;;;;;15.66;74.47;99617.75;7284935;40;20260;31
2023/09/26 21:46:11;;;;;;;2.83;2.50;;;;;;;15.81;74.95;99609.56;7324444;39;20254;31
2023/09/26 21:51:31;;;;;;;2.90;2.40;;;;;;;15.83;73.77;99608.38;7317127;39;20390;31
2023/09/26 21:57:06;;;;;;;3.30;2.30;;;;;;;15.64;75.00;99606.22;7307079;39;20261;31
2023/09/26 22:02:27;;;;;;;2.70;2.40;;;;;;;15.53;74.83;99604.00;7280513;40;20236;31
2023/09/26 22:08:05;;;;;;;4.43;2.43;;;;;;;15.50;74.81;99598.88;7240191;40;20241;31
2023/09/26 22:13:39;;;;;;;2.70;2.45;;;;;;;15.57;75.30;99583.56;7189770;40;20257;31
2023/09/26 22:24:08;;;;;;;3.20;2.57;;;;;;;15.62;76.00;99587.38;7225467;40;20523;31
2023/09/26 22:34:47;;;;;;;3.20;2.75;;;;;;;15.69;75.61;99579.31;7311541;39;20265;31
2023/09/26 22:45:27;;;;;;;3.70;2.33;;;;;;;15.31;76.44;99573.16;7328337;39;21147;31
2023/09/26 22:51:02;;;;;;;3.20;2.57;;;;;;;15.27;76.30;99575.38;7318470;39;20268;31
2023/09/26 22:56:24;;;;;;;3.10;2.70;;;;;;;15.38;76.60;99578.66;7258500;40;20339;31
2023/09/26 23:01:45;;;;;;;3.33;2.90;;;;;;;15.41;77.05;99568.25;7237955;40;20295;31
2023/09/26 23:07:21;;;;;;;4.80;3.10;;;;;;;15.39;77.15;99580.38;7215170;40;20261;31
2023/09/26 23:12:42;;;;;;;4.05;2.80;;;;;;;15.45;78.25;99582.31;7209198;40;20239;31
2023/09/26 23:18:17;;;;;;;4.10;3.00;;;;;;;15.52;78.17;99588.72;7277382;39;20483;31
2023/09/26 23:23:52;;;;;;;4.75;2.90;;;;;;;15.55;77.04;99580.19;7258586;40;20246;31
2023/09/26 23:29:13;;;;;;;4.50;2.87;;;;;;;15.49;77.45;99580.94;7255038;40;20422;31
2023/09/26 23:34:43;;;;;;;;;;;;;;;;;;;;;
2023/09/26 23:40:10;;;;;;;3.43;2.63;;;;;;;15.01;77.96;99583.13;7264934;39;20242;31
2023/09/26 23:45:46;;;;;;;5.60;3.00;;;;;;;14.99;79.04;99582.50;7230847;40;20299;31
2023/09/26 23:51:06;;;;;;;6.75;3.60;;;;;;;14.86;79.31;99594.00;7010626;40;20373;31
2023/09/26 23:56:39;;;;;;;4.20;3.10;;;;;;;14.76;79.42;99592.56;7218819;40;20463;31
